createdAt,value
2023-04-23T00:00:08.144Z,17.40
2023-04-23T00:02:54.451Z,17.50
2023-04-23T00:05:42.023Z,17.70
2023-04-23T00:08:28.512Z,17.80
2023-04-23T00:11:14.290Z,17.80
2023-04-23T00:13:59.562Z,17.80
2023-04-23T00:16:45.366Z,17.90
2023-04-23T00:19:30.350Z,17.80
2023-04-23T00:22:17.062Z,17.90
2023-04-23T00:25:02.300Z,17.80
2023-04-23T00:27:47.966Z,17.80
2023-04-23T00:30:33.814Z,17.70
2023-04-23T00:33:19.044Z,17.70
2023-04-23T00:36:04.699Z,17.70
2023-04-23T00:38:50.387Z,17.70
2023-04-23T00:41:35.815Z,17.70
2023-04-23T00:44:21.100Z,17.70
2023-04-23T00:47:07.752Z,17.60
2023-04-23T00:49:55.566Z,17.70
2023-04-23T00:52:40.954Z,17.60
2023-04-23T00:55:25.922Z,17.60
2023-04-23T00:58:11.468Z,17.50
2023-04-23T01:00:57.804Z,17.40
2023-04-23T01:03:43.441Z,17.50
2023-04-23T01:06:29.989Z,17.40
2023-04-23T01:09:17.962Z,17.40
2023-04-23T01:12:05.767Z,17.40
2023-04-23T01:14:51.695Z,17.40
2023-04-23T01:17:37.194Z,17.30
2023-04-23T01:20:22.838Z,17.20
2023-04-23T01:23:08.422Z,17.20
2023-04-23T01:25:54.532Z,17.10
2023-04-23T01:28:40.047Z,17.10
2023-04-23T01:31:25.975Z,17.10
2023-04-23T01:34:11.618Z,17.10
2023-04-23T01:36:58.482Z,17.00
2023-04-23T01:39:43.637Z,17.00
2023-04-23T01:42:29.001Z,16.90
2023-04-23T01:45:14.353Z,16.90
2023-04-23T01:48:03.194Z,16.90
2023-04-23T01:50:49.736Z,16.90
2023-04-23T01:53:35.238Z,16.80
2023-04-23T01:56:25.337Z,16.70
2023-04-23T01:59:10.543Z,16.70
2023-04-23T02:01:56.052Z,16.70
2023-04-23T02:04:44.315Z,16.70
2023-04-23T02:07:30.908Z,16.70
2023-04-23T02:10:16.903Z,16.60
2023-04-23T02:13:03.029Z,16.70
2023-04-23T02:15:48.450Z,16.70
2023-04-23T02:18:33.773Z,16.70
2023-04-23T02:21:19.214Z,16.80
2023-04-23T02:24:05.333Z,16.60
2023-04-23T02:26:50.900Z,16.60
2023-04-23T02:29:36.769Z,16.60
2023-04-23T02:32:21.883Z,16.50
2023-04-23T02:35:09.383Z,16.40
2023-04-23T02:37:56.087Z,16.50
2023-04-23T02:40:41.555Z,16.40
2023-04-23T02:43:26.801Z,16.30
2023-04-23T02:46:12.238Z,16.30
2023-04-23T02:48:57.588Z,16.20
2023-04-23T02:51:42.989Z,16.20
2023-04-23T02:54:28.239Z,16.20
2023-04-23T02:57:16.346Z,16.30
2023-04-23T03:00:02.122Z,16.30
2023-04-23T03:02:47.494Z,16.20
2023-04-23T03:05:32.831Z,16.10
2023-04-23T03:08:18.245Z,16.20
2023-04-23T03:11:03.726Z,16.20
2023-04-23T03:13:49.254Z,16.20
2023-04-23T03:16:34.599Z,16.20
2023-04-23T03:19:20.180Z,16.20
2023-04-23T03:22:05.799Z,16.20
2023-04-23T03:24:50.985Z,16.20
2023-04-23T03:27:38.427Z,16.20
2023-04-23T03:30:25.014Z,16.10
2023-04-23T03:33:10.169Z,16.10
2023-04-23T03:35:55.743Z,16.10
2023-04-23T03:38:42.087Z,16.00
2023-04-23T03:41:27.544Z,15.90
2023-04-23T03:44:13.004Z,15.80
2023-04-23T03:46:58.485Z,15.70
2023-04-23T03:49:44.359Z,15.70
2023-04-23T03:52:29.758Z,15.60
2023-04-23T03:55:15.162Z,15.50
2023-04-23T03:58:03.241Z,15.50
2023-04-23T04:00:48.522Z,15.60
2023-04-23T04:03:34.266Z,15.60
2023-04-23T04:06:19.438Z,15.60
2023-04-23T04:09:04.928Z,15.60
2023-04-23T04:11:51.745Z,15.50
2023-04-23T04:14:37.950Z,15.50
2023-04-23T04:17:23.334Z,15.60
2023-04-23T04:20:09.254Z,15.50
2023-04-23T04:22:55.371Z,15.40
2023-04-23T04:25:41.156Z,15.40
2023-04-23T04:28:26.597Z,15.40
2023-04-23T04:31:12.644Z,15.30
2023-04-23T04:33:58.536Z,15.30
2023-04-23T04:36:44.151Z,15.40
2023-04-23T04:39:29.197Z,15.40
2023-04-23T04:42:15.649Z,15.40
2023-04-23T04:45:01.013Z,15.30
2023-04-23T04:47:46.242Z,15.20
2023-04-23T04:50:31.616Z,15.20
2023-04-23T04:53:17.154Z,15.20
2023-04-23T04:56:02.715Z,15.10
2023-04-23T04:58:47.921Z,15.20
2023-04-23T05:01:33.828Z,15.30
2023-04-23T05:04:19.474Z,15.30
2023-04-23T05:07:04.646Z,15.40
2023-04-23T05:09:49.841Z,15.40
2023-04-23T05:12:35.252Z,15.30
2023-04-23T05:15:20.804Z,15.30
2023-04-23T05:18:06.306Z,15.20
2023-04-23T05:20:51.433Z,15.30
2023-04-23T05:23:36.967Z,15.30
2023-04-23T05:26:22.458Z,15.20
2023-04-23T05:29:07.819Z,15.20
2023-04-23T05:31:53.249Z,15.30
2023-04-23T05:34:39.518Z,15.20
2023-04-23T05:37:24.980Z,15.40
2023-04-23T05:40:10.609Z,15.30
2023-04-23T05:42:56.838Z,15.20
2023-04-23T05:45:42.086Z,15.20
2023-04-23T05:48:27.216Z,15.20
2023-04-23T05:51:13.321Z,15.10
2023-04-23T05:53:58.657Z,15.00
2023-04-23T05:56:43.922Z,15.00
2023-04-23T05:59:29.336Z,15.00
2023-04-23T06:02:15.205Z,15.00
2023-04-23T06:05:00.640Z,14.90
2023-04-23T06:07:46.316Z,15.10
2023-04-23T06:10:32.062Z,15.10
2023-04-23T06:13:17.285Z,14.90
2023-04-23T06:16:02.559Z,14.80
2023-04-23T06:18:47.935Z,14.80
2023-04-23T06:21:33.520Z,14.80
2023-04-23T06:24:18.542Z,14.90
2023-04-23T06:27:04.056Z,15.00
2023-04-23T06:29:49.417Z,15.00
2023-04-23T06:32:34.916Z,15.10
2023-04-23T06:35:20.562Z,14.90
2023-04-23T06:38:06.158Z,14.90
2023-04-23T06:40:51.714Z,14.90
2023-04-23T06:43:37.091Z,14.80
2023-04-23T06:46:22.585Z,14.80
2023-04-23T06:49:07.723Z,14.80
2023-04-23T06:51:53.251Z,14.80
2023-04-23T06:54:38.668Z,14.80
2023-04-23T06:57:23.858Z,14.90
2023-04-23T07:00:10.853Z,14.90
2023-04-23T07:02:56.163Z,14.90
2023-04-23T07:05:41.893Z,14.80
2023-04-23T07:08:27.382Z,14.70
2023-04-23T07:11:12.734Z,14.80
2023-04-23T07:13:58.573Z,14.90
2023-04-23T07:16:44.160Z,15.00
2023-04-23T07:19:29.556Z,14.90
2023-04-23T07:22:14.963Z,14.90
2023-04-23T07:25:01.132Z,15.00
2023-04-23T07:27:46.325Z,15.10
2023-04-23T07:30:31.637Z,15.10
2023-04-23T07:33:17.260Z,15.00
2023-04-23T07:36:02.376Z,15.00
2023-04-23T07:38:47.852Z,14.90
2023-04-23T07:41:33.490Z,14.80
2023-04-23T07:44:18.714Z,14.70
2023-04-23T07:47:04.250Z,14.60
2023-04-23T07:49:49.815Z,14.60
2023-04-23T07:52:34.987Z,14.50
2023-04-23T07:55:21.671Z,14.50
2023-04-23T07:58:06.999Z,14.50
2023-04-23T08:00:52.583Z,14.50
2023-04-23T08:03:38.127Z,14.50
2023-04-23T08:06:23.980Z,14.60
2023-04-23T08:09:09.388Z,14.50
2023-04-23T08:11:55.372Z,14.50
2023-04-23T08:14:40.707Z,14.50
2023-04-23T08:17:26.143Z,14.50
2023-04-23T08:20:11.549Z,14.50
2023-04-23T08:22:57.092Z,14.50
2023-04-23T08:25:42.433Z,14.40
2023-04-23T08:28:28.008Z,14.50
2023-04-23T08:31:25.626Z,14.50
2023-04-23T08:34:12.549Z,14.60
2023-04-23T08:36:57.674Z,14.60
2023-04-23T08:39:43.080Z,14.80
2023-04-23T08:42:51.359Z,15.00
2023-04-23T08:45:41.540Z,15.10
2023-04-23T08:48:28.303Z,15.40
2023-04-23T08:51:18.779Z,15.60
2023-04-23T08:54:08.357Z,15.80
2023-04-23T08:56:58.337Z,16.10
2023-04-23T08:59:44.786Z,16.30
2023-04-23T09:02:30.174Z,16.10
2023-04-23T09:05:16.022Z,16.20
2023-04-23T09:08:01.476Z,16.10
2023-04-23T09:10:47.037Z,15.90
2023-04-23T09:13:35.033Z,15.90
2023-04-23T09:16:20.251Z,16.00
2023-04-23T09:19:05.834Z,16.00
2023-04-23T09:21:51.720Z,16.20
2023-04-23T09:24:36.951Z,16.20
2023-04-23T09:27:26.312Z,16.20
2023-04-23T09:30:12.689Z,16.20
2023-04-23T09:32:58.059Z,16.10
2023-04-23T09:35:43.349Z,16.10
2023-04-23T09:38:28.950Z,16.10
2023-04-23T09:41:25.028Z,16.10
2023-04-23T09:44:12.285Z,16.20
2023-04-23T09:46:57.337Z,16.30
2023-04-23T09:49:49.762Z,16.20
2023-04-23T09:52:39.097Z,16.30
2023-04-23T09:55:37.253Z,16.40
2023-04-23T09:58:27.605Z,16.50
2023-04-23T10:01:15.316Z,16.50
2023-04-23T10:04:01.365Z,16.50
2023-04-23T10:06:57.730Z,17.10
2023-04-23T10:09:48.190Z,17.30
2023-04-23T10:12:53.044Z,17.30
2023-04-23T10:15:40.230Z,17.60
2023-04-23T10:18:25.960Z,17.90
2023-04-23T10:21:14.765Z,17.60
2023-04-23T10:24:02.618Z,17.60
2023-04-23T10:26:48.113Z,17.60
2023-04-23T10:29:35.030Z,17.80
2023-04-23T10:32:21.545Z,18.00
2023-04-23T10:35:08.443Z,18.50
2023-04-23T10:37:54.012Z,18.90
2023-04-23T10:40:43.572Z,19.10
2023-04-23T10:43:29.160Z,19.30
2023-04-23T10:46:31.431Z,19.20
2023-04-23T10:49:17.207Z,19.10
2023-04-23T10:52:21.175Z,19.10
2023-04-23T10:55:20.984Z,18.90
2023-04-23T10:58:08.457Z,18.80
2023-04-23T11:00:54.139Z,18.80
2023-04-23T11:03:44.130Z,18.70
2023-04-23T11:06:48.445Z,18.80
2023-04-23T11:09:38.374Z,18.50
2023-04-23T11:12:30.846Z,18.10
2023-04-23T11:15:18.677Z,18.00
2023-04-23T11:18:05.042Z,17.90
2023-04-23T11:20:51.372Z,18.00
2023-04-23T11:23:36.794Z,18.00
2023-04-23T11:26:22.858Z,18.20
2023-04-23T11:29:08.487Z,18.40
2023-04-23T11:32:02.625Z,18.50
2023-04-23T11:34:50.580Z,18.60
2023-04-23T11:37:41.127Z,18.60
2023-04-23T11:40:28.118Z,18.80
2023-04-23T11:43:19.547Z,18.90
2023-04-23T11:46:06.304Z,19.20
2023-04-23T11:48:51.767Z,19.00
2023-04-23T11:51:43.522Z,19.20
2023-04-23T11:54:29.606Z,19.00
2023-04-23T11:57:14.792Z,19.00
2023-04-23T12:00:00.196Z,19.00
2023-04-23T12:03:00.884Z,19.10
2023-04-23T12:05:47.033Z,19.10
2023-04-23T12:08:37.716Z,19.20
2023-04-23T12:11:24.343Z,19.70
2023-04-23T12:14:10.943Z,20.10
2023-04-23T12:16:57.059Z,20.00
2023-04-23T12:19:44.898Z,19.80
2023-04-23T12:22:31.148Z,19.70
2023-04-23T12:25:17.132Z,19.70
2023-04-23T12:28:04.920Z,19.20
2023-04-23T12:30:51.253Z,19.00
2023-04-23T12:33:36.545Z,18.90
2023-04-23T12:36:30.770Z,18.80
2023-04-23T12:39:29.846Z,18.80
2023-04-23T12:42:15.307Z,18.80
2023-04-23T12:45:10.198Z,19.00
2023-04-23T12:47:55.319Z,19.20
2023-04-23T12:50:41.681Z,19.40
2023-04-23T12:53:27.954Z,19.60
2023-04-23T12:56:13.246Z,19.50
2023-04-23T12:59:01.825Z,19.30
2023-04-23T13:01:47.436Z,19.30
2023-04-23T13:04:34.749Z,19.40
2023-04-23T13:07:20.279Z,19.50
2023-04-23T13:10:06.249Z,19.50
2023-04-23T13:12:51.451Z,19.60
2023-04-23T13:15:36.948Z,19.60
2023-04-23T13:18:22.701Z,19.50
2023-04-23T13:21:09.490Z,19.50
2023-04-23T13:23:54.524Z,19.70
2023-04-23T13:26:40.349Z,20.00
2023-04-23T13:29:27.294Z,20.20
2023-04-23T13:32:12.780Z,20.10
2023-04-23T13:35:00.526Z,19.80
2023-04-23T13:37:45.796Z,20.10
2023-04-23T13:40:31.126Z,20.00
2023-04-23T13:43:16.562Z,19.90
2023-04-23T13:46:01.971Z,20.40
2023-04-23T13:48:47.315Z,20.50
2023-04-23T13:51:36.096Z,20.90
2023-04-23T13:54:21.531Z,21.20
2023-04-23T13:57:06.998Z,21.70
2023-04-23T13:59:55.166Z,22.10
2023-04-23T14:02:40.718Z,21.90
2023-04-23T14:05:26.078Z,21.80
2023-04-23T14:08:12.956Z,21.80
2023-04-23T14:10:58.398Z,21.70
2023-04-23T14:13:43.995Z,21.50
2023-04-23T14:16:29.544Z,22.10
2023-04-23T14:19:14.809Z,22.00
2023-04-23T14:22:00.365Z,21.80
2023-04-23T14:24:49.475Z,21.60
2023-04-23T14:27:40.974Z,21.40
2023-04-23T14:30:27.897Z,21.20
2023-04-23T14:33:13.261Z,21.20
2023-04-23T14:35:59.144Z,20.90
2023-04-23T14:38:44.835Z,20.70
2023-04-23T14:41:30.328Z,20.40
2023-04-23T14:44:15.473Z,20.20
2023-04-23T14:47:01.157Z,20.10
2023-04-23T14:49:47.172Z,20.00
2023-04-23T14:52:32.603Z,19.90
2023-04-23T14:55:18.002Z,20.00
2023-04-23T14:58:03.929Z,19.90
2023-04-23T15:00:50.931Z,20.00
2023-04-23T15:03:36.642Z,19.90
2023-04-23T15:06:22.514Z,19.80
2023-04-23T15:09:07.612Z,19.80
2023-04-23T15:11:53.548Z,19.80
2023-04-23T15:14:39.076Z,20.00
2023-04-23T15:17:24.610Z,20.20
2023-04-23T15:20:11.831Z,20.00
2023-04-23T15:22:57.450Z,19.80
2023-04-23T15:25:43.355Z,19.80
2023-04-23T15:28:28.893Z,19.90
2023-04-23T15:31:14.702Z,19.90
2023-04-23T15:34:00.291Z,19.90
2023-04-23T15:36:45.673Z,20.00
2023-04-23T15:39:31.187Z,19.70
2023-04-23T15:42:18.270Z,19.70
2023-04-23T15:45:04.018Z,19.80
2023-04-23T15:47:51.379Z,20.10
2023-04-23T15:50:36.937Z,20.00
2023-04-23T15:53:22.994Z,19.80
2023-04-23T15:56:08.147Z,19.70
2023-04-23T15:58:53.592Z,19.60
2023-04-23T16:01:38.967Z,19.60
2023-04-23T16:04:24.529Z,19.60
2023-04-23T16:07:10.199Z,19.90
2023-04-23T16:09:55.813Z,20.10
2023-04-23T16:12:45.464Z,20.00
2023-04-23T16:15:30.890Z,20.10
2023-04-23T16:18:16.286Z,20.20
2023-04-23T16:21:02.524Z,20.00
2023-04-23T16:23:47.896Z,20.00
2023-04-23T16:26:34.061Z,19.90
2023-04-23T16:29:22.584Z,19.80
2023-04-23T16:32:08.300Z,20.00
2023-04-23T16:34:53.825Z,20.10
2023-04-23T16:37:39.157Z,20.10
2023-04-23T16:40:24.645Z,20.00
2023-04-23T16:43:10.233Z,19.90
2023-04-23T16:45:55.804Z,19.80
2023-04-23T16:48:41.857Z,19.70
2023-04-23T16:51:28.637Z,19.70
2023-04-23T16:54:13.683Z,19.70
2023-04-23T16:56:59.085Z,19.80
2023-04-23T16:59:44.522Z,19.50
2023-04-23T17:02:30.078Z,19.40
2023-04-23T17:05:15.389Z,19.40
2023-04-23T17:08:00.739Z,19.40
2023-04-23T17:10:46.413Z,19.20
2023-04-23T17:13:32.236Z,19.00
2023-04-23T17:16:18.175Z,18.90
2023-04-23T17:19:03.434Z,18.80
2023-04-23T17:21:48.873Z,18.90
2023-04-23T17:24:35.542Z,18.90
2023-04-23T17:27:22.709Z,19.00
2023-04-23T17:30:09.149Z,18.90
2023-04-23T17:32:54.670Z,18.90
2023-04-23T17:35:40.003Z,18.90
2023-04-23T17:38:26.194Z,18.90
2023-04-23T17:41:11.202Z,18.90
2023-04-23T17:43:56.569Z,19.00
2023-04-23T17:46:42.104Z,19.00
2023-04-23T17:49:28.200Z,18.90
2023-04-23T17:52:13.397Z,18.90
2023-04-23T17:54:59.842Z,18.70
2023-04-23T17:57:45.468Z,18.70
2023-04-23T18:00:34.111Z,18.70
2023-04-23T18:03:20.528Z,18.70
2023-04-23T18:06:06.024Z,18.60
2023-04-23T18:08:51.406Z,18.60
2023-04-23T18:11:37.715Z,18.50
2023-04-23T18:14:23.188Z,18.50
2023-04-23T18:17:08.454Z,18.40
2023-04-23T18:19:54.847Z,18.30
2023-04-23T18:22:42.219Z,18.10
2023-04-23T18:25:28.314Z,18.00
2023-04-23T18:28:14.232Z,18.00
2023-04-23T18:31:02.586Z,17.80
2023-04-23T18:33:53.675Z,17.90
2023-04-23T18:36:42.605Z,17.70
2023-04-23T18:39:30.584Z,17.70
2023-04-23T18:42:17.758Z,17.60
2023-04-23T18:45:04.335Z,17.60
2023-04-23T18:48:23.524Z,17.50
2023-04-23T18:51:26.557Z,17.40
2023-04-23T18:54:15.698Z,17.40
2023-04-23T18:57:02.158Z,17.40
2023-04-23T18:59:47.614Z,17.30
2023-04-23T19:02:35.491Z,17.20
2023-04-23T19:05:21.765Z,17.00
2023-04-23T19:08:07.514Z,17.00
2023-04-23T19:10:52.699Z,17.10
2023-04-23T19:13:38.158Z,17.10
2023-04-23T19:16:23.619Z,17.10
2023-04-23T19:19:09.221Z,17.10
2023-04-23T19:21:54.295Z,17.00
2023-04-23T19:24:39.672Z,17.00
2023-04-23T19:27:24.958Z,16.90
2023-04-23T19:30:11.528Z,17.00
2023-04-23T19:32:57.280Z,16.80
2023-04-23T19:35:42.757Z,16.80
2023-04-23T19:38:28.252Z,16.80
2023-04-23T19:41:14.425Z,16.60
2023-04-23T19:43:59.690Z,16.60
2023-04-23T19:46:45.088Z,16.60
2023-04-23T19:49:30.433Z,16.60
2023-04-23T19:52:22.906Z,16.40
2023-04-23T19:55:08.647Z,16.40
2023-04-23T19:57:55.184Z,16.40
2023-04-23T20:00:41.926Z,16.40
2023-04-23T20:03:28.078Z,16.40
2023-04-23T20:06:14.666Z,16.40
2023-04-23T20:09:18.737Z,16.30
2023-04-23T20:12:04.658Z,16.40
2023-04-23T20:14:49.844Z,16.50
2023-04-23T20:17:35.472Z,16.50
2023-04-23T20:20:21.683Z,16.40
2023-04-23T20:23:07.158Z,16.40
2023-04-23T20:25:52.717Z,16.30
2023-04-23T20:28:37.985Z,16.40
2023-04-23T20:31:23.410Z,16.30
2023-04-23T20:34:08.887Z,15.70
2023-04-23T20:36:54.165Z,15.30
2023-04-23T20:39:39.888Z,15.10
2023-04-23T20:42:25.751Z,15.10
2023-04-23T20:45:13.069Z,15.10
2023-04-23T20:48:01.809Z,15.20
2023-04-23T20:50:47.298Z,15.00
2023-04-23T20:53:32.972Z,15.20
2023-04-23T20:56:18.634Z,15.20
2023-04-23T20:59:05.053Z,15.30
2023-04-23T21:01:50.695Z,15.30
2023-04-23T21:04:36.471Z,15.50
2023-04-23T21:07:21.605Z,15.50
2023-04-23T21:10:07.340Z,15.60
2023-04-23T21:12:52.567Z,15.60
2023-04-23T21:15:38.530Z,15.70
2023-04-23T21:18:23.944Z,15.80
2023-04-23T21:21:09.501Z,15.90
2023-04-23T21:23:54.882Z,15.90
2023-04-23T21:26:40.208Z,15.90
2023-04-23T21:29:26.446Z,15.90
2023-04-23T21:32:11.832Z,16.00
2023-04-23T21:34:56.908Z,15.90
2023-04-23T21:37:42.394Z,15.80
2023-04-23T21:40:27.987Z,15.80
2023-04-23T21:43:13.988Z,15.80
2023-04-23T21:45:59.506Z,15.70
2023-04-23T21:48:49.177Z,15.70
2023-04-23T21:51:36.919Z,15.60
2023-04-23T21:54:22.799Z,15.50
2023-04-23T21:57:08.153Z,15.50
2023-04-23T21:59:53.707Z,15.50
2023-04-23T22:02:41.995Z,15.40
2023-04-23T22:05:28.422Z,15.30
2023-04-23T22:08:13.552Z,15.30
2023-04-23T22:10:58.964Z,15.30
2023-04-23T22:13:44.585Z,15.30
2023-04-23T22:16:30.168Z,15.40
2023-04-23T22:19:16.075Z,15.30
2023-04-23T22:22:01.399Z,15.20
2023-04-23T22:24:46.819Z,15.20
2023-04-23T22:27:34.749Z,15.30
2023-04-23T22:30:20.439Z,15.30
2023-04-23T22:33:05.985Z,15.40
2023-04-23T22:35:51.592Z,15.50
2023-04-23T22:38:36.849Z,15.50
2023-04-23T22:41:22.194Z,15.50
2023-04-23T22:44:09.219Z,15.50
2023-04-23T22:46:56.489Z,15.50
2023-04-23T22:49:42.161Z,15.40
2023-04-23T22:52:28.447Z,15.40
2023-04-23T22:55:13.828Z,15.30
2023-04-23T22:57:59.299Z,15.20
2023-04-23T23:00:44.830Z,15.10
2023-04-23T23:03:30.445Z,15.20
2023-04-23T23:06:17.045Z,15.20
2023-04-23T23:09:02.016Z,15.20
2023-04-23T23:11:47.553Z,15.30
2023-04-23T23:14:33.980Z,15.20
2023-04-23T23:17:19.062Z,15.20
2023-04-23T23:20:08.882Z,15.10
2023-04-23T23:22:54.437Z,14.90
2023-04-23T23:25:39.412Z,14.90
2023-04-23T23:28:24.964Z,14.90
2023-04-23T23:31:10.443Z,15.00
2023-04-23T23:33:55.768Z,15.00
2023-04-23T23:36:41.234Z,15.00
2023-04-23T23:39:27.393Z,14.80
2023-04-23T23:42:12.509Z,14.70
2023-04-23T23:44:57.671Z,14.70
2023-04-23T23:47:43.235Z,14.90
2023-04-23T23:50:28.637Z,14.80
2023-04-23T23:53:13.951Z,14.90
2023-04-23T23:56:00.069Z,14.80
2023-04-23T23:58:45.198Z,14.80
